Results by/Résultats par Info:[email protected] Phone: (613)723-0994

                                    K-TOWN TRIATHLON

                                 Sunday August 5, 2007

                         Confederation Park, Kingston, Ontario

                        Overall Results - Long Course Triathlon

  -----FINAL----- ----------------------- ------------ ------------------- -----          2 km                       56.5 km                   15 km
                                                       Category                   ------SWIM + T1-------    ----------BIKE--------    -------RUN + T2-------- -------
    Pos     Time  Name                    City         Plc/Total Category     #    Cat  Ovr  Time  /100m     Cat Ovr Time  km/hr      Cat  Ovr  Time     km   Penalty
  ------  ------- ----------------------- ------------ ------------------- -----  ----------------------    ----------------------    ----------------------- -------
    1     2:46:29 Mike NEILL              Victoria     1/2   Elite Men      45    1      1   26:43  1:21    1      1 1:23:40  40.5     1      3   56:07  3:45
    2     2:50:10 Rick HELLARD            Ottawa       1/26  M40 - 44      169    1      3   27:31  1:23    1      3 1:27:40  38.7     1      1   55:00  3:40
    3     2:56:32 Ryan CAIN               Ottawa       1/7   M25 - 29      182    1     22   32:36  1:38    1      4 1:28:04  38.5     1      2   55:54  3:44
    4     2:58:01 Tony OKEEFFE            Kingston     1/17  M45 - 49      149    5     13   30:31  1:32    1      5 1:28:41  38.2     1      5   58:50  3:56
    5     3:04:39 Michael WOODFORD        Ottawa       2/26  M40 - 44      121    3     20   32:29  1:38    2      8 1:31:39  37.0     2      6 1:00:32  4:03
    6     3:06:02 Paul B. MCANENEY        Ottawa       1/17  M35 - 39      107    2     18   32:18  1:37    1      6 1:29:36  37.8     1     12 1:04:10  4:17
    7     3:06:45 Mike SCHERMAN           Kanata       1/3   M20 - 24       98    1     17   32:14  1:37    1     31 1:36:49  35.0     1      4   57:43  3:51
    8     3:06:50 James YOUNG             Ottawa       2/17  M45 - 49      152    3      8   29:08  1:28    4     17 1:34:57  35.7     2      8 1:02:46  4:12
    9     3:07:28 Cynthia WILSON          Gatineau     1/3   Elite Women    87    3     12   30:07  1:31    1     12 1:33:09  36.4     1     13 1:04:13  4:17
   10     3:08:14 Dalton COTE             Kingston     3/26  M40 - 44      123    2     16   32:08  1:37    3      9 1:32:00  36.8     4     10 1:04:06  4:17
   11     3:11:06 Susanne RUSSELL         Ottawa       2/3   Elite Women   171    2      6   28:52  1:27    3     34 1:37:06  34.9     2     19 1:05:10  4:21
   12     3:11:55 George REID             Ottawa       1/15  M50 - 54      166    2     27   33:30  1:41    3     18 1:34:59  35.7     1      9 1:03:27  4:14
   13     3:12:05 Rob MCCULLOCH           Ottawa       3/17  M45 - 49      158    2      7   29:02  1:28    2      7 1:30:24  37.5     7     51 1:12:41  4:51
   14     3:13:03 Paul MONROE             Wolfe isla   2/15  M50 - 54      112    1     25   33:05  1:40    4     21 1:35:31  35.5     2     14 1:04:27  4:18
   15     3:13:16 Rob MILLER              Kingston     4/26  M40 - 44      101    11    56   36:27  1:50    7     24 1:35:48  35.4     3      7 1:01:01  4:05
   16     3:13:58 Gilbert AYOUB           Westmount    3/15  M50 - 54       29    6     61   37:00  1:51    1     10 1:32:07  36.8     3     17 1:04:52  4:20
   17     3:15:02 Louis TAY               Ottawa       5/26  M40 - 44       35    9     39   34:38  1:44    6     22 1:35:35  35.5     5     16 1:04:50  4:20
   18     3:15:20 Marie DANAIS            Hull         3/3   Elite Women   178    1      2   27:27  1:23    2     26 1:36:34  35.1     3     42 1:11:20  4:46
   19     3:15:26 Christopher GRIMWOOD    Guelph       1/9   M30 - 34      141    1     10   29:51  1:30    4     50 1:41:27  33.4     1     11 1:04:09  4:17
   20     3:16:29 David BROWN             Kanata       6/26  M40 - 44       26    8     38   34:35  1:44    4     13 1:34:33  35.9     6     25 1:07:22  4:30
   21     3:17:23 Alan CHUD               Markham      4/17  M45 - 49       66    6     28   33:45  1:42    6     29 1:36:47  35.0     4     22 1:06:52  4:28
   22     3:17:34 Jeff FLANAGAN           Toronto      2/17  M35 - 39       88    4     29   33:48  1:42    3     23 1:35:41  35.4     2     27 1:08:06  4:33
   23     3:17:45 Marty RAYMOND           Cumberland   5/17  M45 - 49       79    4      9   29:41  1:30    7     49 1:40:53  33.6     5     23 1:07:12  4:29
   24     3:18:20 Joe BALDOCK             Kingston     2/7   M25 - 29       54    5     49   35:38  1:47    2     30 1:36:48  35.0     2     21 1:05:55  4:24
   25     3:18:41 Robert ALLEN            Cornwall     3/17  M35 - 39       22    3     19   32:27  1:38    4     25 1:36:26  35.2     3     34 1:09:49  4:40
   26     3:18:53 Ian BALL                London       2/9   M30 - 34      154    2     14   30:55  1:33    1     16 1:34:54  35.7     4     53 1:13:05  4:53
   27     3:19:36 Sara DOMINA             Ottawa       1/6   W25 - 29      144    1     24   33:01  1:40    1     37 1:38:16  34.5     2     30 1:08:20  4:34
   28     3:20:13 Cindy LEWIS             Toronto      2/6   W25 - 29       67    2     33   34:16  1:43    2     39 1:38:31  34.4     1     26 1:07:26  4:30
   29     3:20:20 Joe MCMASTER            Gananque     4/17  M35 - 39      126    5     44   35:13  1:46    2     11 1:33:02  36.4     5     46 1:12:07  4:49
   30     3:20:29 Len IRELAND             Ottawa       4/15  M50 - 54      138    5     59   36:42  1:51    2     14 1:34:43  35.8     4     32 1:09:05  4:37
   31     3:21:24 Stephen HINTON          Kingston     6/17  M45 - 49        7    7     36   34:26  1:44    5     20 1:35:30  35.5     6     43 1:11:29  4:46
   32     3:22:39 Alexis GUIGUE           LAnge-Gard   3/9   M30 - 34      146    7    103   41:10  2:04    2     33 1:36:56  35.0     2     15 1:04:35  4:19
   33     3:23:17 Ben BELL                Kingston     3/7   M25 - 29      191    6     50   35:41  1:47    4     42 1:39:21  34.1     3     28 1:08:16  4:34
   34     3:23:44 Fred TOPHAM             Shanghai     7/17  M45 - 49       72    13   120   43:11  2:10    3     15 1:34:44  35.8     3     20 1:05:50  4:24
   35     3:23:52 James WOJTYK            Kingston     5/17  M35 - 39       99    1     11   30:06  1:31    9     54 1:42:36  33.0     4     41 1:11:11  4:45
   36     3:24:16 Matt SETLACK            Kingston     2/3   M20 - 24       92    2    113   42:30  2:08    2     32 1:36:50  35.0     2     18 1:04:57  4:20
   37     3:25:24 Clive MORGAN            Yarker       8/17  M45 - 49       24    1      5   28:48  1:27    9     56 1:42:59  32.9     8     57 1:13:38  4:55
   38     3:25:37 Murray TOUGH            Kingston     7/26  M40 - 44       39    14    66   37:31  1:53    5     19 1:35:15  35.6     10    52 1:12:52  4:52
   39     3:26:28 Jennifer GARDINER       Ottawa       1/13  W30 - 34      116    1     15   31:45  1:36    3     64 1:43:54  32.6     3     38 1:10:50  4:44
   40     3:27:18 Jeff MORRIS             Toronto      5/15  M50 - 54       89    8     75   38:04  1:55    5     38 1:38:17  34.5     5     39 1:10:58  4:44
   41     3:27:28 Hendrik SAALTINK        Cornwall     6/15  M50 - 54       21    4     47   35:31  1:47    7     47 1:40:24  33.8     6     45 1:11:34  4:47
   42     3:28:09 Shannon KEMP            Aurora       2/13  W30 - 34      181    8     72   37:52  1:54    1     41 1:39:08  34.2     4     40 1:11:11  4:45
   43     3:28:29 Jon BELL                Kingston     4/7   M25 - 29      192    4     48   35:32  1:47    5     44 1:39:34  34.0     4     55 1:13:24  4:54
   44     3:29:00 Jim MALEKOS             Kingston     7/15  M50 - 54       95    3     30   33:50  1:42    6     40 1:38:58  34.3     8     69 1:16:13  5:05
   45     3:29:38 Michael HEAL            Kingston     6/17  M35 - 39        3    10    92   39:31  1:59    5     27 1:36:38  35.1     6     56 1:13:30  4:54
   46     3:29:49 Andrew BALL             Grimsby      5/7   M25 - 29      151    3     26   33:26  1:41    3     35 1:37:13  34.9     6     79 1:19:11  5:17
   47     3:30:31 Andrea MORITZ           Ottawa       1/12  W40 - 44       84    1     71   37:45  1:54    1     62 1:43:49  32.7     1     31 1:08:58  4:36
   48 CLY 3:30:39 David BARBIC            Amherstvie   6/7   M25 - 29      170    2     23   32:44  1:39    6     48 1:40:27  33.7     5     72 1:17:29  5:10
   49     3:32:12 Tanya PORCELLATO        Guelph       3/13  W30 - 34      155    6     63   37:05  1:52    6     79 1:46:49  31.7     2     29 1:08:19  4:34
   50     3:33:20 Steve FARAONE           Toronto      4/9   M30 - 34       71    3     32   34:05  1:43    5     70 1:45:29  32.1     5     58 1:13:47  4:56
   51     3:33:23 Rebecca PEARCE          Montreal     4/13  W30 - 34      140    3     46   35:28  1:47    4     72 1:45:42  32.1     5     48 1:12:14  4:49
   52 CLY 3:34:12 David BRUCE             Kingston     8/26  M40 - 44       18    5     31   34:03  1:43    10    59 1:43:41  32.7     12    70 1:16:29  5:06
   53 CLY 3:34:45 Douglas BRUCE           Mississaug   9/26  M40 - 44       73    10    54   36:14  1:49    8     36 1:37:56  34.6     15    93 1:20:36  5:23
   54     3:34:50 Stuart JONES            Kingston    10/26  M40 - 44      128    6     35   34:18  1:43    9     43 1:39:28  34.1     17    98 1:21:05  5:25
   55     3:35:39 Kerry ROCHELEAU         Ottawa       1/7   W35 - 39      142    1     34   34:17  1:43    3     92 1:49:11  31.0     1     47 1:12:12  4:49
   56     3:36:06 John DUFFNEY            Kingston    11/26  M40 - 44       42    17   100   40:55  2:03    11    65 1:44:23  32.5     7     37 1:10:49  4:44
   57     3:36:26 Martine CLEMENT         Ottawa       5/13  W30 - 34      131    7     69   37:36  1:53    7    108 1:51:33  30.4     1     24 1:07:17  4:30
   58     3:37:11 Tara RAWLUK             Stirling     6/13  W30 - 34      139    4     51   35:42  1:48    2     60 1:43:42  32.7     8     74 1:17:48  5:12
   59     3:37:21 Stephen SARGEANT        Kingston     7/17  M35 - 39       16    12    96   40:19  2:01    7     45 1:40:08  33.9     8     71 1:16:55  5:08
   60     3:37:57 Andrew PHILLIPS         Somers       8/17  M35 - 39       52    13   101   41:07  2:04    6     28 1:36:40  35.1     9     88 1:20:11  5:21
   61     3:38:12 Joseph VICKERY          Whitby       5/9   M30 - 34       91    6     81   38:38  1:56    6     94 1:49:24  31.0     3     35 1:10:12  4:41
   62     3:39:02 Guy PHILLIPS            Kingston     1/13  M55 - 59       85    3     67   37:32  1:53    1     53 1:42:22  33.1     3     78 1:19:09  5:17
   63     3:40:56 Andy DESBARATS          Aurora       9/17  M35 - 39        9    7     53   36:11  1:49    13    93 1:49:20  31.0     7     65 1:15:27  5:02
   64     3:41:53 Steve MCCREADY          Ottawa      12/26  M40 - 44      104    20   110   42:08  2:07    15    82 1:47:16  31.6     9     50 1:12:29  4:50
   65     3:41:56 Bruce HAYDON            Ottawa      13/26  M40 - 44       51    18   105   41:12  2:04    13    67 1:45:13  32.2     11    66 1:15:32  5:03
   66     3:42:30 Adele MUGFORD           Ottawa       7/13  W30 - 34       81    2     43   35:06  1:46    9    117 1:52:51  30.0     6     60 1:14:35  4:59
   67     3:42:53 Eric LINDENBERG         Belleville   8/15  M50 - 54       58    9    124   43:30  2:11    8     61 1:43:43  32.7     7     67 1:15:41  5:03
   68     3:42:54 Diana GERRITSEN         Kingston     3/6   W25 - 29      174    4     82   38:46  1:57    4     87 1:47:57  31.4     3     68 1:16:12  5:05
   69     3:43:09 Ed BRAND                Kingston     2/13  M55 - 59       37    5     86   38:59  1:57    5    105 1:50:56  30.6     2     54 1:13:14  4:53
   70     3:43:40 Jennifer AITKEN         Kingston     1/3   W20 - 24      134    1     58   36:40  1:50    1     86 1:47:43  31.5     2     80 1:19:18  5:18
   71     3:43:51 Steve BAFIA             Ottawa       9/17  M45 - 49      115    9     57   36:38  1:50    10    58 1:43:38  32.7     13   107 1:23:35  5:35
   72     3:44:29 Jim MCMAHON             Belleville  10/17  M35 - 39      161    9     85   38:57  1:57    8     51 1:41:58  33.2     11   108 1:23:35  5:35
   73     3:44:45 Stacey BERDAN           Tweed        2/12  W40 - 44       19    4     98   40:28  2:02    4     96 1:49:46  30.9     3     59 1:14:32  4:59
   74     3:45:11 Louise GARIEPY          Ottawa       4/6   W25 - 29      106    5    102   41:09  2:04    3     77 1:46:15  31.9     4     75 1:17:48  5:12
   75     3:45:50 LolaJean GENTLES        Acton        2/3   W20 - 24       27    3     88   39:18  1:58    2    124 1:55:01  29.5     1     44 1:11:32  4:47
   76     3:46:20 Carla DIFAZIO COOK      St. Cathar   2/7   W35 - 39      145    5    107   41:17  2:04    1     83 1:47:21  31.6     3     73 1:17:43  5:11
   77     3:47:46 Alyson ARMSTRONG        Kingston     8/13  W30 - 34       57    9     91   39:30  1:59    10   119 1:53:22  29.9     7     62 1:14:55  5:00
   78     3:47:59 Sheri MCCREADY          Ottawa       3/12  W40 - 44      105    6    111   42:20  2:07    5    102 1:50:34  30.7     5     63 1:15:07  5:01
   79     3:48:08 Glenda CLAPHAM          Whitby       1/11  W45 - 49       83    3     90   39:27  1:59    1     80 1:46:54  31.7     2    101 1:21:48  5:28
   80     3:48:19 Jennifer SUGGARS        Cornwall     3/7   W35 - 39       74    2     62   37:02  1:52    6    128 1:55:54  29.2     2     64 1:15:24  5:02
   81     3:49:03 Judith HOEFER           Toronto      5/6   W25 - 29       82    3     73   37:57  1:54    5     91 1:48:42  31.2     6    103 1:22:25  5:30
   82     3:49:19 John YENDT              Herndon      9/15  M50 - 54      118    10   130   44:11  2:13    9     71 1:45:30  32.1     9     83 1:19:39  5:19
   83     3:49:36 Andre SINCENNES         Ottawa      14/26  M40 - 44       70    22   116   42:55  2:09    14    76 1:46:01  32.0     16    94 1:20:41  5:23
   84 CLY 3:49:42 Maurice GALLAGHER       Toronto     10/17  M45 - 49      109    15   145   46:08  2:19    8     52 1:42:12  33.2     11   100 1:21:23  5:26
   85     3:49:43 Christopher SEEWALD     Kingston     3/3   M20 - 24      189    3    127   43:54  2:12    3     74 1:45:50  32.0     3     87 1:20:00  5:20
   86     3:49:58 Yves DECOSTE            Lyn         11/17  M35 - 39      135    6     45   35:25  1:47    12    69 1:45:29  32.1     15   126 1:29:06  5:57
   87     3:50:04 Derek OUELLET           Kingston    11/17  M45 - 49        6    8     41   35:00  1:45    12    73 1:45:43  32.1     16   127 1:29:22  5:58
   88     3:50:30 Shelley MULROONEY       Kingston     4/7   W35 - 39       14    4     93   39:53  2:00    2     84 1:47:24  31.6     5    105 1:23:14  5:33
   89     3:50:40 Anthony AMODEO          Georgetown  12/17  M35 - 39       80    11    94   40:01  2:01    11    57 1:43:30  32.8     12   118 1:27:10  5:49
   90     3:50:42 Heather IRELAND         Ottawa       2/11  W45 - 49      137    4    106   41:16  2:04    2     95 1:49:41  30.9     1     85 1:19:46  5:20
   91     3:50:53 Ken CORNELIUS           Oshawa      15/26  M40 - 44        2    15    83   38:47  1:57    19   109 1:51:35  30.4     14    91 1:20:32  5:23
   92     3:51:56 Karen NATHO             St. Cathar   9/13  W30 - 34      165    5     52   36:03  1:49    11   133 1:56:57  29.0     9     77 1:18:58  5:16
   93     3:52:03 Terry LAUZON            Cornwall    16/26  M40 - 44       47    21   112   42:28  2:08    17    98 1:49:53  30.9     13    84 1:19:43  5:19
   94     3:52:19 Robin TODD              Guelph       4/12  W40 - 44      127    11   158   49:48  2:30    6    110 1:51:52  30.3     2     36 1:10:40  4:43
   95     3:52:38 Jerome LEVESQUE         Kingston     6/9   M30 - 34      130    9    128   44:00  2:12    7     97 1:49:52  30.9     6     76 1:18:48  5:16
   96     3:53:30 Ron EARLE               Westbank    10/15  M50 - 54      120    7     70   37:42  1:54    12   104 1:50:55  30.6     11   114 1:24:53  5:40
   97     3:54:05 James MCKIRDY           Ottawa      12/17  M45 - 49       41    11    79   38:26  1:56    15   121 1:54:30  29.6     10    99 1:21:10  5:25
   98     3:54:18 Sebastien COLPRON       St-sauveur  13/17  M35 - 39       12    15   126   43:42  2:12    10    55 1:42:50  33.0     14   121 1:27:47  5:52
   99     3:54:30 Bob EBSARY              Rockland    13/17  M45 - 49      184    12   119   43:10  2:10    14   107 1:51:24  30.4     9     86 1:19:57  5:20
  100     3:54:42 Michael NUTTALL         London       7/9   M30 - 34        4    5     80   38:33  1:56    3     46 1:40:16  33.8     8    149 1:35:54  6:24
  101     3:54:49 Jim ELYOT               Kingston    11/15  M50 - 54       90    11   149   47:00  2:21    11    81 1:46:57  31.7     10    96 1:20:53  5:24
  102     3:55:26 Richard BOWES           Kanata       3/13  M55 - 59      167    10   162   50:34  2:32    2     68 1:45:23  32.2     4     82 1:19:29  5:18
  103     3:55:39 Adam KOVEN              Kingston    14/17  M35 - 39       48    16   134   44:44  2:15    14   101 1:50:25  30.7     10    90 1:20:31  5:23
  104     3:56:00 Holly WILLENBRECHT      Etobicoke   10/13  W30 - 34      180    13   155   48:42  2:27    5     78 1:46:35  31.8     10    95 1:20:44  5:23
  105     3:57:09 Nadia BUCCIERI          Aurora       5/7   W35 - 39      114    6    121   43:15  2:10    4    120 1:54:29  29.6     4     81 1:19:26  5:18
  106     3:57:40 David SMITH             Kingston     4/13  M55 - 59      129    6    114   42:30  2:08    4    100 1:50:16  30.7     5    115 1:24:56  5:40
  107     3:57:59 Neil GRAHAM             Ottawa      17/26  M40 - 44       43    13    64   37:05  1:52    20   113 1:52:10  30.2     18   124 1:28:45  5:55
  108     3:58:02 Kyla SMITH              Kingston     6/7   W35 - 39       97    3     84   38:51  1:57    5    122 1:54:37  29.6     6    113 1:24:36  5:39
  109     3:58:18 Cuthbert CHEUNG         Belleville  14/17  M45 - 49       64    10    76   38:12  1:55    16   138 1:58:12  28.7     12   102 1:21:54  5:28
  110     3:59:46 Allison CHRISTIE        Ottawa      11/13  W30 - 34       36    12   122   43:24  2:11    8    114 1:52:16  30.2     12   109 1:24:07  5:37
  111     3:59:55 Denis MOREL             Hartington  15/17  M45 - 49       10    14   132   44:32  2:14    13   106 1:51:08  30.5     14   111 1:24:16  5:37
  112     4:00:01 Cathy CAMPANARO         Kingston     5/12  W40 - 44      132    7    115   42:35  2:08    8    132 1:56:55  29.0     6     92 1:20:32  5:23
  113     4:00:06 Christine LATTIMORE     Kingston     3/11  W45 - 49      157    2     77   38:16  1:55    4    126 1:55:25  29.4     3    117 1:26:26  5:46
  114     4:00:17 John QUEENAN            Kinston     18/26  M40 - 44       11    25   165   51:45  2:36    23   131 1:56:10  29.2     8     49 1:12:23  4:50
  115     4:01:52 Craig MEEKS             Roslin      15/17  M35 - 39       34    14   125   43:38  2:11    15   103 1:50:45  30.6     13   120 1:27:30  5:50
  116     4:02:26 Chuck DOUGLAS           Kingston    19/26  M40 - 44       55    24   150   47:05  2:22    12    66 1:44:54  32.3     19   130 1:30:28  6:02
  117     4:02:54 Helen SCISSONS          Kingston     1/5   W50 - 54      175    5    161   50:26  2:32    2    112 1:52:03  30.3     1     89 1:20:26  5:22
  118     4:02:57 Morris O'CALLAGHAN      Ottawa       5/13  M55 - 59      125    1     42   35:03  1:46    9    135 1:57:01  29.0     7    132 1:30:54  6:04
  119     4:03:22 Reiko IKEBA             Toronto     12/13  W30 - 34      179    10    99   40:51  2:03    12   148 2:00:08  28.2     11   104 1:22:25  5:30
  120     4:03:27 Ayoub ARLENE            Westmount    2/5   W50 - 54       28    3    140   45:09  2:16    3    123 1:54:48  29.5     2    106 1:23:31  5:35
  121     4:03:34 Carrie MCCALLUM         Kanata       6/12  W40 - 44       96    8    123   43:27  2:11    2     85 1:47:25  31.6     10   138 1:32:43  6:11
  122     4:04:00 Julia AIMERS            Ottawa       7/12  W40 - 44      172    3     97   40:23  2:02    3     90 1:48:41  31.2     12   147 1:34:56  6:20
  123     4:04:26 Scott ARMSTRONG         Thornhill   20/26  M40 - 44      108    7     37   34:33  1:44    21   125 1:55:25  29.4     23   145 1:34:29  6:18
  124     4:04:49 Branwyn HOLROYD         Kingston     8/12  W40 - 44      159    9    131   44:13  2:13    12   160 2:05:59  26.9     4     61 1:14:38  4:59
  125     4:05:42 Bob ALEXANDER           Ottawa      12/15  M50 - 54       93    13   154   48:25  2:26    10    75 1:45:50  32.0     13   133 1:31:28  6:06
  126     4:05:56 Bruce WELLER            Kingston    21/26  M40 - 44      190    19   108   41:37  2:05    18    99 1:50:03  30.8     22   144 1:34:16  6:18
  127     4:06:28 Bruce THOMPSON          Burlington  22/26  M40 - 44      153    16    89   39:25  1:59    16    88 1:48:03  31.4     24   156 1:39:00  6:36
  128 DNF 4:06:31 Serge LEBBE             Kingston     6/13  M55 - 59      186    13   168   54:07  2:43    12   156 2:03:08  27.5     1     33 1:09:18  4:38
  129     4:06:51 Leonard SHEA            Guelph      23/26  M40 - 44      185    12    60   36:51  1:51    24   134 1:56:58  29.0     21   142 1:33:03  6:13
  130     4:07:27 Michael BRUNDAGE        Kingston    16/17  M45 - 49      164    17   147   46:35  2:20    11    63 1:43:49  32.7     17   152 1:37:05  6:29
  131 CLY 4:07:47 Paul DIER               Whitby      16/17  M35 - 39       59    8     68   37:33  1:53    16   136 1:57:28  28.9     16   140 1:32:46  6:12
  132     4:08:08 Michael WECHSELBERGER   Toronto      8/9   M30 - 34      111    8    117   42:57  2:09    8    147 1:59:50  28.3     7    116 1:25:21  5:42
  133     4:08:20 Kate LLOYD              Toronto      6/6   W25 - 29       94    6    144   45:56  2:18    6    152 2:01:32  27.9     5     97 1:20:53  5:24
  134     4:09:13 Bob HARDING             Sydenham     7/13  M55 - 59       25    7    129   44:07  2:13    6    118 1:52:51  30.0     8    137 1:32:16  6:09
  135     4:09:17 Peter STAPLETON         Kingston    17/17  M45 - 49       50    16   146   46:27  2:20    17   142 1:58:26  28.6     15   112 1:24:25  5:38
  136     4:10:31 Sue MCIVER              Kingston     9/12  W40 - 44       60    5    104   41:11  2:04    10   150 2:00:30  28.1     8    125 1:28:51  5:56
  137     4:12:16 Nicola JOHNSON          Kanata      10/12  W40 - 44      133    12   159   50:13  2:31    9    137 1:57:53  28.8     7    110 1:24:11  5:37
  138     4:12:43 Ron WALKER              Kanata       8/13  M55 - 59      119    2     55   36:16  1:49    10   145 1:59:15  28.4     9    153 1:37:13  6:29
  139     4:12:51 Suzanne DOSTALER        Kingston     3/5   W50 - 54       49    4    160   50:16  2:31    1    111 1:52:02  30.3     3    131 1:30:34  6:03
  140     4:13:39 Cindy HEALY             Kingston    11/12  W40 - 44        5    10   156   49:21  2:29    7    116 1:52:50  30.0     9    134 1:31:29  6:06
  141     4:13:57 Walter NOBLE            Ottawa      24/26  M40 - 44      113    23   139   45:09  2:16    22   130 1:56:06  29.2     20   139 1:32:43  6:11
  142     4:14:12 Lorri FAUGHNAN          Westmount    4/11  W45 - 49       31    9    157   49:41  2:30    3    115 1:52:38  30.1     7    136 1:31:55  6:08
  143     4:14:26 Johanne LEFEBVRE        Morin-heig   5/11  W45 - 49       13    7    138   45:05  2:16    5    144 1:59:03  28.5     6    129 1:30:19  6:02
  144     4:14:53 Ann WALLLING            Montreal     6/11  W45 - 49       33    1     40   34:59  1:45    8    161 2:06:48  26.7     8    143 1:33:08  6:13
  145     4:15:11 Brenda FARNQUIST        Kingston     7/7   W35 - 39       15    7    135   44:47  2:15    7    143 1:58:53  28.5     7    135 1:31:32  6:07
  146     4:16:49 Chris OUIMET            Kingston     7/7   M25 - 29      102    7    143   45:36  2:17    7    140 1:58:14  28.7     7    141 1:32:59  6:12
  147     4:20:08 Jill RELYEA-VOSS        Kingston     4/5   W50 - 54       20    2    133   44:36  2:14    4    146 1:59:38  28.3     4    150 1:35:55  6:24
  148     4:20:25 Ian BUTT                Kanata      17/17  M35 - 39       63    17   136   44:52  2:15    17   139 1:58:12  28.7     17   154 1:37:22  6:30
  149 CLY 4:20:47 Lesley TAYLOR           Toronto     12/12  W40 - 44       75    2     95   40:18  2:01    11   159 2:05:37  27.0     11   146 1:34:53  6:20
  150     4:21:29 Maria CRONK             Kingston     7/11  W45 - 49       44    5    118   43:00  2:09    6    155 2:02:21  27.7     9    151 1:36:10  6:25
  151     4:23:57 David LYON              Kingston     9/13  M55 - 59      176    12   166   52:52  2:39    11   153 2:01:32  27.9     6    128 1:29:33  5:59
  152     4:25:24 Kathie KEY              Milton       1/1   W60 - 64      160    1    148   46:48  2:21    1    157 2:03:24  27.5     1    148 1:35:14  6:21
  153     4:25:47 Trevor VOWLES           Kingston    10/13  M55 - 59       23    9    152   47:24  2:23    7    127 1:55:49  29.3     10   159 1:42:35  6:51
  154     4:26:41 Kathryn HANDFORD        Toronto      8/11  W45 - 49      148    11   170   54:48  2:45    7    158 2:03:59  27.3     4    122 1:27:55  5:52
  155     4:27:00 Laurent LEGAULT         Kingsport   13/15  M50 - 54      100    12   153   47:58  2:24    14   165 2:11:36  25.8     12   119 1:27:27  5:50
  156     4:28:47 Heather FRASER-DUBE     Orleans      9/11  W45 - 49      162    10   164   51:11  2:34    9    163 2:08:53  26.3     5    123 1:28:43  5:55
  157     4:29:54 Anna MORRIS             Milton       5/5   W50 - 54      122    1     87   39:15  1:58    5    149 2:00:12  28.2     5    162 1:50:28  7:22
  158     4:30:05 Monika DUTT             Toronto     13/13  W30 - 34      183    11   109   41:49  2:06    13   164 2:09:36  26.2     13   155 1:38:41  6:35
  159     4:30:27 Robert MCCALDON         Hartington   1/1   M70 & Over     38    1    151   47:08  2:22    1    154 2:02:00  27.8     1    157 1:41:20  6:46
  160     4:33:09 Steve DONNER            Frederick    9/9   M30 - 34        1    4     78   38:18  1:55    9    167 2:13:22  25.4     9    158 1:41:30  6:46
  161     4:38:02 Peter BROWN             Kingston    11/13  M55 - 59      188    11   163   50:37  2:32    8    129 1:55:57  29.2     11   164 1:51:29  7:26
  162     4:41:39 Michael MCMAHON         Ottawa      25/26  M40 - 44      156    26   169   54:09  2:43    25   151 2:00:52  28.0     25   160 1:46:38  7:07
  163 CLY 4:42:45 Douglas OWEN            Westport    14/15  M50 - 54      173    14   167   53:35  2:41    13   141 1:58:14  28.7     14   163 1:50:57  7:24
  164     4:54:58 David STEVENS           Rideau fer  12/13  M55 - 59      150    8    141   45:19  2:16    13   166 2:11:36  25.8     12   166 1:58:04  7:53
  165     4:56:25 Joan BARDOSSI           Rochester   10/11  W45 - 49       32    8    142   45:32  2:17    10   169 2:20:46  24.1     10   161 1:50:08  7:21
  166     5:03:28 Semra GULDER            Ottawa      11/11  W45 - 49       61    6    137   44:58  2:15    11   170 2:22:32  23.8     11   165 1:55:59  7:44
  167     5:39:06 David MAILEY            Kingston    15/15  M50 - 54      136    15   171 1:21:17  4:04    15   168 2:15:45  25.0     15   167 2:02:06  8:09
  168             Dave HARJU              Kingston     2/2   Elite Men     187    2      4   27:57  1:24    2      2 1:24:02  40.3
  169 DNF         David DYER              Ottawa      13/13  M55 - 59       53    4     74   38:01  1:55    3     89 1:48:04  31.4
  170             Laura FRANKLIN          Toronto      3/3   W20 - 24       30    2     65   37:13  1:52    3    162 2:08:44  26.3
  171 DNF         Graeme SMITH            Kingston    26/26  M40 - 44        8    4     21   32:33  1:38